sensor_id;sensor_type;location;lat;lon;timestamp;pressure;altitude;pressure_sealevel;temperature;humidity
58690;BME280;44470;53.206;-6.106;2024-03-23T00:52:36;101496.81;;;20.39;43.70
58690;BME280;44470;53.206;-6.106;2024-03-23T00:55:01;101495.03;;;20.38;44.06
58690;BME280;44470;53.206;-6.106;2024-03-23T00:57:27;101497.72;;;20.38;44.20
58690;BME280;44470;53.206;-6.106;2024-03-23T00:59:53;101502.16;;;20.39;44.28
58690;BME280;44470;53.206;-6.106;2024-03-23T01:02:19;101489.69;;;20.38;43.93
58690;BME280;44470;53.206;-6.106;2024-03-23T01:04:44;101490.56;;;20.39;43.92
58690;BME280;44470;53.206;-6.106;2024-03-23T01:07:10;101480.78;;;20.39;44.21
58690;BME280;44470;53.206;-6.106;2024-03-23T01:09:35;101491.47;;;20.38;44.09
58690;BME280;44470;53.206;-6.106;2024-03-23T01:12:00;101487.94;;;20.37;44.36
58690;BME280;44470;53.206;-6.106;2024-03-23T01:14:26;101470.13;;;20.36;43.89
58690;BME280;44470;53.206;-6.106;2024-03-23T01:16:52;101476.38;;;20.35;44.15
58690;BME280;44470;53.206;-6.106;2024-03-23T01:19:17;101472.75;;;20.39;43.90
58690;BME280;44470;53.206;-6.106;2024-03-23T01:21:43;101479.00;;;20.38;43.81
58690;BME280;44470;53.206;-6.106;2024-03-23T01:24:08;101469.19;;;20.39;44.20
58690;BME280;44470;53.206;-6.106;2024-03-23T01:26:35;101479.88;;;20.39;43.88
58690;BME280;44470;53.206;-6.106;2024-03-23T01:29:02;101467.44;;;20.36;43.89
58690;BME280;44470;53.206;-6.106;2024-03-23T01:31:27;101470.13;;;20.36;43.65
58690;BME280;44470;53.206;-6.106;2024-03-23T01:33:53;101463.88;;;20.37;43.66
58690;BME280;44470;53.206;-6.106;2024-03-23T01:36:18;101468.34;;;20.35;43.86
58690;BME280;44470;53.206;-6.106;2024-03-23T01:38:44;101466.53;;;20.37;44.13
58690;BME280;44470;53.206;-6.106;2024-03-23T01:41:10;101453.16;;;20.36;43.64
58690;BME280;44470;53.206;-6.106;2024-03-23T01:43:35;101476.31;;;20.37;43.58
58690;BME280;44470;53.206;-6.106;2024-03-23T01:46:00;101459.41;;;20.36;43.72
58690;BME280;44470;53.206;-6.106;2024-03-23T01:48:26;101447.81;;;20.36;43.74
58690;BME280;44470;53.206;-6.106;2024-03-23T01:50:51;101455.81;;;20.40;43.63
58690;BME280;44470;53.206;-6.106;2024-03-23T01:53:17;101459.38;;;20.39;43.78
58690;BME280;44470;53.206;-6.106;2024-03-23T01:55:44;101448.69;;;20.39;43.81
58690;BME280;44470;53.206;-6.106;2024-03-23T01:58:10;101450.47;;;20.40;43.66
58690;BME280;44470;53.206;-6.106;2024-03-23T02:00:36;101419.28;;;20.38;43.52
58690;BME280;44470;53.206;-6.106;2024-03-23T02:03:01;101441.56;;;20.38;43.74
58690;BME280;44470;53.206;-6.106;2024-03-23T02:05:27;101427.34;;;20.36;43.64
58690;BME280;44470;53.206;-6.106;2024-03-23T02:07:52;101430.91;;;20.35;43.48
58690;BME280;44470;53.206;-6.106;2024-03-23T02:10:18;101432.66;;;20.38;43.49
58690;BME280;44470;53.206;-6.106;2024-03-23T02:12:43;101424.63;;;20.38;43.55
58690;BME280;44470;53.206;-6.106;2024-03-23T02:15:08;101434.41;;;20.39;43.55
58690;BME280;44470;53.206;-6.106;2024-03-23T02:17:34;101427.31;;;20.39;43.56
58690;BME280;44470;53.206;-6.106;2024-03-23T02:20:00;101435.34;;;20.36;43.64
58690;BME280;44470;53.206;-6.106;2024-03-23T02:22:35;101435.31;;;20.38;43.62
58690;BME280;44470;53.206;-6.106;2024-03-23T02:25:00;101422.00;;;20.36;43.56
58690;BME280;44470;53.206;-6.106;2024-03-23T02:27:26;101424.63;;;20.38;43.52
58690;BME280;44470;53.206;-6.106;2024-03-23T02:29:51;101421.94;;;20.39;43.65
58690;BME280;44470;53.206;-6.106;2024-03-23T02:32:16;101421.94;;;20.39;43.08
58690;BME280;44470;53.206;-6.106;2024-03-23T02:34:42;101447.78;;;20.39;43.48
58690;BME280;44470;53.206;-6.106;2024-03-23T02:37:11;101432.66;;;20.39;43.64
58690;BME280;44470;53.206;-6.106;2024-03-23T02:39:37;101438.00;;;20.39;43.31
58690;BME280;44470;53.206;-6.106;2024-03-23T02:42:02;101434.41;;;20.39;43.33
58690;BME280;44470;53.206;-6.106;2024-03-23T02:44:27;101434.41;;;20.40;43.40
58690;BME280;44470;53.206;-6.106;2024-03-23T02:46:53;101434.41;;;20.39;43.14
58690;BME280;44470;53.206;-6.106;2024-03-23T02:49:18;101434.41;;;20.40;43.19
58690;BME280;44470;53.206;-6.106;2024-03-23T02:51:43;101425.50;;;20.41;43.28
58690;BME280;44470;53.206;-6.106;2024-03-23T02:54:10;101427.31;;;20.39;43.19
58690;BME280;44470;53.206;-6.106;2024-03-23T02:56:36;101422.81;;;20.41;43.12
58690;BME280;44470;53.206;-6.106;2024-03-23T02:59:01;101420.16;;;20.41;43.33
58690;BME280;44470;53.206;-6.106;2024-03-23T03:01:26;101419.28;;;20.39;43.38
58690;BME280;44470;53.206;-6.106;2024-03-23T03:03:52;101413.03;;;20.40;43.39
58690;BME280;44470;53.206;-6.106;2024-03-23T03:06:26;101407.69;;;20.40;43.40
58690;BME280;44470;53.206;-6.106;2024-03-23T03:08:52;101419.25;;;20.41;43.19
58690;BME280;44470;53.206;-6.106;2024-03-23T03:11:17;101416.56;;;20.42;43.56
58690;BME280;44470;53.206;-6.106;2024-03-23T03:13:42;101409.44;;;20.41;43.11
58690;BME280;44470;53.206;-6.106;2024-03-23T03:16:09;101405.88;;;20.42;43.26
58690;BME280;44470;53.206;-6.106;2024-03-23T03:18:34;101403.22;;;20.41;43.27
58690;BME280;44470;53.206;-6.106;2024-03-23T03:21:00;101402.31;;;20.43;43.25
58690;BME280;44470;53.206;-6.106;2024-03-23T03:23:26;101409.44;;;20.43;43.34
58690;BME280;44470;53.206;-6.106;2024-03-23T03:25:51;101389.84;;;20.42;43.17
58690;BME280;44470;53.206;-6.106;2024-03-23T03:28:16;101397.84;;;20.42;43.36
58690;BME280;44470;53.206;-6.106;2024-03-23T03:30:42;101397.84;;;20.44;42.99
58690;BME280;44470;53.206;-6.106;2024-03-23T03:33:07;101380.91;;;20.43;43.14
58690;BME280;44470;53.206;-6.106;2024-03-23T03:35:32;101398.72;;;20.44;43.03
58690;BME280;44470;53.206;-6.106;2024-03-23T03:37:58;101398.72;;;20.44;43.52
58690;BME280;44470;53.206;-6.106;2024-03-23T03:40:23;101409.41;;;20.44;43.53
58690;BME280;44470;53.206;-6.106;2024-03-23T03:42:49;101386.25;;;20.43;43.14
58690;BME280;44470;53.206;-6.106;2024-03-23T03:45:15;101392.47;;;20.45;43.47
58690;BME280;44470;53.206;-6.106;2024-03-23T03:47:40;101389.78;;;20.45;43.47
58690;BME280;44470;53.206;-6.106;2024-03-23T03:50:06;101388.94;;;20.45;43.49
58690;BME280;44470;53.206;-6.106;2024-03-23T03:52:31;101374.66;;;20.46;43.23
58690;BME280;44470;53.206;-6.106;2024-03-23T03:55:01;101371.06;;;20.45;43.05
58690;BME280;44470;53.206;-6.106;2024-03-23T03:57:27;101373.75;;;20.45;43.09
58690;BME280;44470;53.206;-6.106;2024-03-23T03:59:53;101360.38;;;20.45;43.32
58690;BME280;44470;53.206;-6.106;2024-03-23T04:02:18;101367.50;;;20.48;42.90
58690;BME280;44470;53.206;-6.106;2024-03-23T04:04:43;101369.31;;;20.46;43.05
58690;BME280;44470;53.206;-6.106;2024-03-23T04:07:09;101358.56;;;20.47;42.92
58690;BME280;44470;53.206;-6.106;2024-03-23T04:09:34;101357.72;;;20.45;43.12
58690;BME280;44470;53.206;-6.106;2024-03-23T04:12:00;101356.84;;;20.45;43.40
58690;BME280;44470;53.206;-6.106;2024-03-23T04:14:26;101356.81;;;20.46;43.09
58690;BME280;44470;53.206;-6.106;2024-03-23T04:16:51;101338.13;;;20.45;42.81
58690;BME280;44470;53.206;-6.106;2024-03-23T04:19:16;101355.03;;;20.47;43.19
58690;BME280;44470;53.206;-6.106;2024-03-23T04:21:42;101348.78;;;20.46;43.03
58690;BME280;44470;53.206;-6.106;2024-03-23T04:24:07;101333.66;;;20.47;43.39
58690;BME280;44470;53.206;-6.106;2024-03-23T04:26:42;101328.31;;;20.45;42.95
58690;BME280;44470;53.206;-6.106;2024-03-23T04:29:07;101321.16;;;20.47;43.23
58690;BME280;44470;53.206;-6.106;2024-03-23T04:31:33;101328.28;;;20.47;43.52
58690;BME280;44470;53.206;-6.106;2024-03-23T04:34:00;101316.69;;;20.46;43.07
58690;BME280;44470;53.206;-6.106;2024-03-23T04:36:25;101322.91;;;20.48;43.02
58690;BME280;44470;53.206;-6.106;2024-03-23T04:38:51;101338.03;;;20.50;43.09
58690;BME280;44470;53.206;-6.106;2024-03-23T04:41:17;101322.00;;;20.50;43.00
58690;BME280;44470;53.206;-6.106;2024-03-23T04:43:43;101305.09;;;20.49;43.08
58690;BME280;44470;53.206;-6.106;2024-03-23T04:46:08;101310.44;;;20.47;42.72
58690;BME280;44470;53.206;-6.106;2024-03-23T04:48:34;101315.78;;;20.47;42.97
